sensor_id;sensor_type;location;lat;lon;timestamp;pressure;altitude;pressure_sealevel;temperature;humidity
4024;BME280;2026;51.002;13.668;2023-10-09T00:03:00;99681.03;;;11.09;72.43
4024;BME280;2026;51.002;13.668;2023-10-09T00:08:07;99685.31;;;10.74;73.11
4024;BME280;2026;51.002;13.668;2023-10-09T00:13:13;99673.03;;;11.02;73.02
4024;BME280;2026;51.002;13.668;2023-10-09T00:18:15;99665.41;;;11.14;73.38
4024;BME280;2026;51.002;13.668;2023-10-09T00:23:25;99655.91;;;11.20;72.62
4024;BME280;2026;51.002;13.668;2023-10-09T00:28:29;99641.72;;;11.27;72.44
4024;BME280;2026;51.002;13.668;2023-10-09T00:33:32;99633.97;;;11.26;72.33
4024;BME280;2026;51.002;13.668;2023-10-09T00:38:37;99626.53;;;11.36;72.39
4024;BME280;2026;51.002;13.668;2023-10-09T00:43:46;99584.75;;;11.03;73.43
4024;BME280;2026;51.002;13.668;2023-10-09T00:48:53;99557.31;;;11.04;72.78
4024;BME280;2026;51.002;13.668;2023-10-09T00:53:59;99524.13;;;11.02;71.20
4024;BME280;2026;51.002;13.668;2023-10-09T00:59:09;99561.72;;;10.76;71.84
4024;BME280;2026;51.002;13.668;2023-10-09T01:04:16;99548.13;;;10.79;72.84
4024;BME280;2026;51.002;13.668;2023-10-09T01:09:22;99560.75;;;11.05;72.98
4024;BME280;2026;51.002;13.668;2023-10-09T01:14:25;99543.66;;;11.01;74.66
4024;BME280;2026;51.002;13.668;2023-10-09T01:19:28;99554.34;;;11.14;73.97
4024;BME280;2026;51.002;13.668;2023-10-09T01:24:33;99541.16;;;11.21;74.81
4024;BME280;2026;51.002;13.668;2023-10-09T01:29:41;99525.91;;;10.95;75.67
4024;BME280;2026;51.002;13.668;2023-10-09T01:34:45;99517.50;;;10.63;76.95
4024;BME280;2026;51.002;13.668;2023-10-09T01:39:54;99495.00;;;10.95;76.16
4024;BME280;2026;51.002;13.668;2023-10-09T01:45:00;99490.72;;;11.22;74.88
4024;BME280;2026;51.002;13.668;2023-10-09T01:50:12;99502.22;;;11.08;76.22
4024;BME280;2026;51.002;13.668;2023-10-09T01:55:24;99497.72;;;10.80;78.29
4024;BME280;2026;51.002;13.668;2023-10-09T02:00:35;99494.19;;;10.95;77.97
4024;BME280;2026;51.002;13.668;2023-10-09T02:05:44;99468.09;;;10.85;77.75
4024;BME280;2026;51.002;13.668;2023-10-09T02:10:49;99445.84;;;11.01;78.03
4024;BME280;2026;51.002;13.668;2023-10-09T02:15:52;99435.34;;;11.14;77.30
4024;BME280;2026;51.002;13.668;2023-10-09T02:21:06;99417.84;;;11.13;77.64
4024;BME280;2026;51.002;13.668;2023-10-09T02:26:18;99414.78;;;10.53;79.92
4024;BME280;2026;51.002;13.668;2023-10-09T02:31:28;99403.00;;;10.84;78.99
4024;BME280;2026;51.002;13.668;2023-10-09T02:36:38;99393.41;;;11.11;78.23
4024;BME280;2026;51.002;13.668;2023-10-09T02:41:45;99368.84;;;11.17;78.43
4024;BME280;2026;51.002;13.668;2023-10-09T02:46:51;99365.91;;;10.42;82.39
4024;BME280;2026;51.002;13.668;2023-10-09T02:51:59;99362.75;;;10.82;80.25
4024;BME280;2026;51.002;13.668;2023-10-09T02:57:08;99347.88;;;10.74;80.62
4024;BME280;2026;51.002;13.668;2023-10-09T03:02:17;99334.44;;;11.11;78.38
4024;BME280;2026;51.002;13.668;2023-10-09T03:07:21;99307.97;;;11.04;79.33
4024;BME280;2026;51.002;13.668;2023-10-09T03:12:26;99299.09;;;11.32;77.71
4024;BME280;2026;51.002;13.668;2023-10-09T03:17:30;99285.91;;;10.83;80.11
4024;BME280;2026;51.002;13.668;2023-10-09T03:22:35;99270.53;;;11.07;79.64
4024;BME280;2026;51.002;13.668;2023-10-09T03:27:40;99266.09;;;11.14;79.59
4024;BME280;2026;51.002;13.668;2023-10-09T03:32:46;99253.50;;;11.16;78.86
4024;BME280;2026;51.002;13.668;2023-10-09T03:37:55;99231.75;;;11.27;78.55
4024;BME280;2026;51.002;13.668;2023-10-09T03:43:03;99230.03;;;10.93;80.08
4024;BME280;2026;51.002;13.668;2023-10-09T03:48:06;99241.88;;;10.62;81.63
4024;BME280;2026;51.002;13.668;2023-10-09T03:53:17;99251.19;;;11.00;79.89
4024;BME280;2026;51.002;13.668;2023-10-09T03:58:22;99244.94;;;11.14;79.35
4024;BME280;2026;51.002;13.668;2023-10-09T04:03:25;99245.09;;;10.99;79.62
4024;BME280;2026;51.002;13.668;2023-10-09T04:08:28;99241.72;;;11.19;78.95
4024;BME280;2026;51.002;13.668;2023-10-09T04:13:33;99243.31;;;11.20;78.94
4024;BME280;2026;51.002;13.668;2023-10-09T04:18:36;99258.28;;;10.86;80.50
4024;BME280;2026;51.002;13.668;2023-10-09T04:23:41;99246.78;;;11.20;79.30
4024;BME280;2026;51.002;13.668;2023-10-09T04:29:24;99260.84;;;11.21;79.43
4024;BME280;2026;51.002;13.668;2023-10-09T04:34:30;99247.81;;;11.19;79.81
4024;BME280;2026;51.002;13.668;2023-10-09T04:39:37;99240.88;;;11.18;79.76
4024;BME280;2026;51.002;13.668;2023-10-09T04:44:49;99218.91;;;11.11;80.24
4024;BME280;2026;51.002;13.668;2023-10-09T04:50:11;99225.22;;;11.17;79.86
4024;BME280;2026;51.002;13.668;2023-10-09T04:55:16;99209.91;;;11.05;80.22
4024;BME280;2026;51.002;13.668;2023-10-09T05:00:22;99194.53;;;11.22;80.00
4024;BME280;2026;51.002;13.668;2023-10-09T05:05:45;99203.03;;;11.11;80.38
4024;BME280;2026;51.002;13.668;2023-10-09T05:11:02;99180.81;;;10.99;80.80
4024;BME280;2026;51.002;13.668;2023-10-09T05:16:20;99185.50;;;10.97;81.14
4024;BME280;2026;51.002;13.668;2023-10-09T05:21:30;99176.00;;;11.16;80.81
4024;BME280;2026;51.002;13.668;2023-10-09T05:26:47;99188.19;;;10.48;83.89
4024;BME280;2026;51.002;13.668;2023-10-09T05:31:55;99158.47;;;10.95;81.61
4024;BME280;2026;51.002;13.668;2023-10-09T05:37:00;99141.81;;;11.07;81.24
4024;BME280;2026;51.002;13.668;2023-10-09T05:42:18;99138.53;;;10.99;81.93
4024;BME280;2026;51.002;13.668;2023-10-09T05:47:24;99141.59;;;10.06;86.09
4024;BME280;2026;51.002;13.668;2023-10-09T05:52:34;99159.94;;;10.49;84.76
4024;BME280;2026;51.002;13.668;2023-10-09T05:57:51;99179.84;;;10.45;85.55
4024;BME280;2026;51.002;13.668;2023-10-09T06:03:27;99176.09;;;10.74;84.40
4024;BME280;2026;51.002;13.668;2023-10-09T06:08:50;99166.00;;;10.98;82.83
4024;BME280;2026;51.002;13.668;2023-10-09T06:14:11;99174.25;;;10.68;85.02
4024;BME280;2026;51.002;13.668;2023-10-09T06:19:26;99172.09;;;10.98;84.05
4024;BME280;2026;51.002;13.668;2023-10-09T06:24:30;99161.31;;;11.00;83.98
4024;BME280;2026;51.002;13.668;2023-10-09T06:29:43;99143.88;;;10.50;86.85
4024;BME280;2026;51.002;13.668;2023-10-09T06:35:17;99148.00;;;10.66;87.49
4024;BME280;2026;51.002;13.668;2023-10-09T06:40:23;99153.59;;;10.98;86.58
4024;BME280;2026;51.002;13.668;2023-10-09T06:45:44;99139.59;;;11.24;86.07
4024;BME280;2026;51.002;13.668;2023-10-09T06:50:48;99146.31;;;11.60;84.95
4024;BME280;2026;51.002;13.668;2023-10-09T06:55:59;99144.06;;;11.77;86.17
4024;BME280;2026;51.002;13.668;2023-10-09T07:01:08;99160.72;;;11.85;87.26
4024;BME280;2026;51.002;13.668;2023-10-09T07:06:28;99173.97;;;12.25;87.87
4024;BME280;2026;51.002;13.668;2023-10-09T07:11:46;99168.72;;;12.63;88.37
4024;BME280;2026;51.002;13.668;2023-10-09T07:17:11;99169.03;;;12.80;87.87
4024;BME280;2026;51.002;13.668;2023-10-09T07:22:47;99178.34;;;12.96;87.74
4024;BME280;2026;51.002;13.668;2023-10-09T07:27:58;99177.44;;;13.09;87.05
4024;BME280;2026;51.002;13.668;2023-10-09T07:33:03;99188.25;;;13.14;86.86
4024;BME280;2026;51.002;13.668;2023-10-09T07:38:21;99196.97;;;13.21;86.04
4024;BME280;2026;51.002;13.668;2023-10-09T07:43:26;99205.91;;;13.27;84.97
4024;BME280;2026;51.002;13.668;2023-10-09T07:48:30;99218.19;;;13.21;85.21
4024;BME280;2026;51.002;13.668;2023-10-09T07:53:42;99213.22;;;13.32;85.43
4024;BME280;2026;51.002;13.668;2023-10-09T07:58:51;99204.66;;;13.36;85.66
4024;BME280;2026;51.002;13.668;2023-10-09T08:03:54;99222.22;;;13.37;85.14
4024;BME280;2026;51.002;13.668;2023-10-09T08:09:06;99225.22;;;13.47;84.81
4024;BME280;2026;51.002;13.668;2023-10-09T08:14:41;99224.81;;;13.44;85.20
4024;BME280;2026;51.002;13.668;2023-10-09T08:19:46;99226.38;;;13.52;84.82
4024;BME280;2026;51.002;13.668;2023-10-09T08:25:01;99204.47;;;13.63;84.43
4024;BME280;2026;51.002;13.668;2023-10-09T08:30:06;99209.56;;;13.64;84.50
4024;BME280;2026;51.002;13.668;2023-10-09T08:35:31;99220.75;;;13.66;84.17
4024;BME280;2026;51.002;13.668;2023-10-09T08:40:38;99252.47;;;13.61;84.33
4024;BME280;2026;51.002;13.668;2023-10-09T08:45:45;99244.34;;;13.56;84.73
4024;BME280;2026;51.002;13.668;2023-10-09T08:50:49;99225.53;;;13.58;84.60
4024;BME280;2026;51.002;13.668;2023-10-09T08:55:53;99239.28;;;13.48;84.25
4024;BME280;2026;51.002;13.668;2023-10-09T09:00:57;99240.50;;;13.52;84.23
4024;BME280;2026;51.002;13.668;2023-10-09T09:06:02;99253.41;;;13.42;83.97
4024;BME280;2026;51.002;13.668;2023-10-09T09:11:10;99253.34;;;13.48;83.74
4024;BME280;2026;51.002;13.668;2023-10-09T09:16:15;99244.09;;;13.33;84.95
4024;BME280;2026;51.002;13.668;2023-10-09T09:21:19;99243.81;;;13.41;84.48
4024;BME280;2026;51.002;13.668;2023-10-09T09:26:37;99266.72;;;13.35;84.07
4024;BME280;2026;51.002;13.668;2023-10-09T09:31:53;99269.78;;;13.32;84.83
4024;BME280;2026;51.002;13.668;2023-10-09T09:36:58;99246.28;;;13.42;84.40
4024;BME280;2026;51.002;13.668;2023-10-09T09:42:06;99242.78;;;13.42;84.23
4024;BME280;2026;51.002;13.668;2023-10-09T09:47:15;99246.09;;;13.37;84.52
4024;BME280;2026;51.002;13.668;2023-10-09T09:52:29;99249.91;;;13.48;84.61
4024;BME280;2026;51.002;13.668;2023-10-09T09:57:44;99256.59;;;13.57;83.91
4024;BME280;2026;51.002;13.668;2023-10-09T10:02:47;99256.31;;;13.65;83.65
4024;BME280;2026;51.002;13.668;2023-10-09T10:07:51;99253.19;;;13.75;83.08
4024;BME280;2026;51.002;13.668;2023-10-09T10:12:58;99252.16;;;13.76;83.26
4024;BME280;2026;51.002;13.668;2023-10-09T10:18:07;99242.72;;;13.80;82.84
4024;BME280;2026;51.002;13.668;2023-10-09T10:23:15;99261.97;;;13.76;82.67
4024;BME280;2026;51.002;13.668;2023-10-09T10:28:22;99256.06;;;13.74;82.88
4024;BME280;2026;51.002;13.668;2023-10-09T10:34:05;99252.25;;;13.88;83.25
4024;BME280;2026;51.002;13.668;2023-10-09T10:39:12;99240.41;;;13.91;82.52
4024;BME280;2026;51.002;13.668;2023-10-09T10:44:31;99240.19;;;13.67;84.60
4024;BME280;2026;51.002;13.668;2023-10-09T10:49:43;99239.47;;;13.78;84.23
4024;BME280;2026;51.002;13.668;2023-10-09T10:54:46;99223.69;;;13.83;84.18
4024;BME280;2026;51.002;13.668;2023-10-09T11:00:12;99218.38;;;14.09;83.17
4024;BME280;2026;51.002;13.668;2023-10-09T11:05:35;99208.34;;;14.11;83.06
4024;BME280;2026;51.002;13.668;2023-10-09T11:10:41;99208.09;;;13.94;83.92
4024;BME280;2026;51.002;13.668;2023-10-09T11:15:53;99197.59;;;13.80;84.23
4024;BME280;2026;51.002;13.668;2023-10-09T11:21:16;99189.22;;;13.77;84.34
4024;BME280;2026;51.002;13.668;2023-10-09T11:26:50;99190.50;;;13.74;84.89
4024;BME280;2026;51.002;13.668;2023-10-09T11:32:01;99189.78;;;13.86;84.03
4024;BME280;2026;51.002;13.668;2023-10-09T11:37:13;99180.75;;;13.87;84.47
4024;BME280;2026;51.002;13.668;2023-10-09T11:42:20;99188.31;;;13.64;85.79
4024;BME280;2026;51.002;13.668;2023-10-09T11:47:38;99209.28;;;13.47;86.82
4024;BME280;2026;51.002;13.668;2023-10-09T11:52:57;99190.06;;;13.77;86.02
4024;BME280;2026;51.002;13.668;2023-10-09T11:58:12;99196.34;;;14.01;85.02
4024;BME280;2026;51.002;13.668;2023-10-09T12:03:15;99178.53;;;14.09;85.06
4024;BME280;2026;51.002;13.668;2023-10-09T12:08:18;99182.88;;;14.03;85.73
4024;BME280;2026;51.002;13.668;2023-10-09T12:13:25;99178.16;;;14.24;84.99
4024;BME280;2026;51.002;13.668;2023-10-09T12:18:30;99184.22;;;14.31;84.68
4024;BME280;2026;51.002;13.668;2023-10-09T12:23:36;99187.91;;;14.30;84.96
4024;BME280;2026;51.002;13.668;2023-10-09T12:28:40;99185.88;;;14.07;85.70
4024;BME280;2026;51.002;13.668;2023-10-09T12:33:48;99179.69;;;14.31;85.05
4024;BME280;2026;51.002;13.668;2023-10-09T12:38:53;99187.19;;;14.60;83.48
4024;BME280;2026;51.002;13.668;2023-10-09T12:44:02;99186.28;;;14.29;85.03
4024;BME280;2026;51.002;13.668;2023-10-09T12:49:06;99196.63;;;14.55;84.37
4024;BME280;2026;51.002;13.668;2023-10-09T12:54:09;99187.84;;;14.55;84.32
4024;BME280;2026;51.002;13.668;2023-10-09T12:59:14;99178.59;;;14.57;84.29
4024;BME280;2026;51.002;13.668;2023-10-09T13:04:19;99186.22;;;14.54;84.33
4024;BME280;2026;51.002;13.668;2023-10-09T13:09:23;99183.19;;;14.50;84.39
4024;BME280;2026;51.002;13.668;2023-10-09T13:14:37;99182.38;;;14.50;85.19
4024;BME280;2026;51.002;13.668;2023-10-09T13:19:43;99163.88;;;14.62;84.60
4024;BME280;2026;51.002;13.668;2023-10-09T13:24:46;99170.41;;;14.77;83.99
4024;BME280;2026;51.002;13.668;2023-10-09T13:29:51;99165.47;;;14.63;84.64
4024;BME280;2026;51.002;13.668;2023-10-09T13:34:55;99158.69;;;14.67;83.96
4024;BME280;2026;51.002;13.668;2023-10-09T13:39:58;99169.53;;;14.65;84.13
4024;BME280;2026;51.002;13.668;2023-10-09T13:45:04;99168.97;;;14.63;84.19
4024;BME280;2026;51.002;13.668;2023-10-09T13:50:17;99161.44;;;14.60;83.78
4024;BME280;2026;51.002;13.668;2023-10-09T13:55:23;99179.38;;;14.65;83.97
4024;BME280;2026;51.002;13.668;2023-10-09T14:00:34;99176.31;;;14.61;82.90
4024;BME280;2026;51.002;13.668;2023-10-09T14:05:45;99170.94;;;14.31;84.01
4024;BME280;2026;51.002;13.668;2023-10-09T14:10:56;99159.28;;;14.13;85.39
4024;BME280;2026;51.002;13.668;2023-10-09T14:16:03;99175.06;;;14.27;84.94
4024;BME280;2026;51.002;13.668;2023-10-09T14:21:08;99180.47;;;14.38;84.15
4024;BME280;2026;51.002;13.668;2023-10-09T14:26:18;99173.88;;;14.23;85.20
4024;BME280;2026;51.002;13.668;2023-10-09T14:31:26;99170.34;;;14.29;85.18
4024;BME280;2026;51.002;13.668;2023-10-09T14:36:30;99177.66;;;14.33;85.13
4024;BME280;2026;51.002;13.668;2023-10-09T14:41:35;99177.19;;;14.36;84.92
4024;BME280;2026;51.002;13.668;2023-10-09T14:46:39;99180.97;;;14.29;85.57
4024;BME280;2026;51.002;13.668;2023-10-09T14:51:43;99177.50;;;14.28;85.72
4024;BME280;2026;51.002;13.668;2023-10-09T14:56:47;99168.28;;;14.12;86.21
4024;BME280;2026;51.002;13.668;2023-10-09T15:01:53;99168.94;;;14.26;86.09
4024;BME280;2026;51.002;13.668;2023-10-09T15:06:56;99176.09;;;14.26;85.48
4024;BME280;2026;51.002;13.668;2023-10-09T15:11:59;99182.94;;;14.15;86.38
4024;BME280;2026;51.002;13.668;2023-10-09T15:17:04;99179.47;;;14.14;86.98
4024;BME280;2026;51.002;13.668;2023-10-09T15:22:08;99190.19;;;14.26;85.71
4024;BME280;2026;51.002;13.668;2023-10-09T15:27:13;99187.53;;;14.26;85.79
4024;BME280;2026;51.002;13.668;2023-10-09T15:32:20;99188.38;;;14.27;85.95
4024;BME280;2026;51.002;13.668;2023-10-09T15:37:26;99193.13;;;14.18;86.21
4024;BME280;2026;51.002;13.668;2023-10-09T15:42:29;99195.84;;;14.11;86.31
4024;BME280;2026;51.002;13.668;2023-10-09T15:47:33;99200.81;;;14.26;85.48
4024;BME280;2026;51.002;13.668;2023-10-09T15:52:38;99201.53;;;14.15;86.09
4024;BME280;2026;51.002;13.668;2023-10-09T15:57:42;99207.84;;;14.20;85.65
4024;BME280;2026;51.002;13.668;2023-10-09T16:02:47;99213.19;;;13.95;87.10
4024;BME280;2026;51.002;13.668;2023-10-09T16:07:53;99210.03;;;14.05;86.58
4024;BME280;2026;51.002;13.668;2023-10-09T16:12:56;99212.41;;;14.13;86.42
4024;BME280;2026;51.002;13.668;2023-10-09T16:18:00;99219.13;;;14.16;86.26
4024;BME280;2026;51.002;13.668;2023-10-09T16:23:08;99229.22;;;14.07;86.59
4024;BME280;2026;51.002;13.668;2023-10-09T16:28:11;99227.34;;;13.89;87.70
4024;BME280;2026;51.002;13.668;2023-10-09T16:33:18;99230.25;;;14.06;87.07
4024;BME280;2026;51.002;13.668;2023-10-09T16:38:21;99231.78;;;13.95;87.80
4024;BME280;2026;51.002;13.668;2023-10-09T16:43:26;99231.66;;;14.09;87.30
4024;BME280;2026;51.002;13.668;2023-10-09T16:48:31;99224.75;;;14.26;86.10
4024;BME280;2026;51.002;13.668;2023-10-09T16:53:34;99232.91;;;14.06;87.20
4024;BME280;2026;51.002;13.668;2023-10-09T16:58:39;99233.75;;;14.00;87.40
4024;BME280;2026;51.002;13.668;2023-10-09T17:03:45;99237.94;;;14.14;86.63
4024;BME280;2026;51.002;13.668;2023-10-09T17:08:49;99241.63;;;14.13;86.99
4024;BME280;2026;51.002;13.668;2023-10-09T17:13:54;99245.00;;;14.02;87.79
4024;BME280;2026;51.002;13.668;2023-10-09T17:19:00;99249.91;;;14.24;86.50
4024;BME280;2026;51.002;13.668;2023-10-09T17:24:04;99246.41;;;14.05;87.33
4024;BME280;2026;51.002;13.668;2023-10-09T17:29:12;99246.50;;;14.16;86.91
4024;BME280;2026;51.002;13.668;2023-10-09T17:34:19;99254.41;;;14.23;86.57
4024;BME280;2026;51.002;13.668;2023-10-09T17:39:24;99257.75;;;14.18;87.74
4024;BME280;2026;51.002;13.668;2023-10-09T17:44:28;99259.84;;;14.10;87.91
4024;BME280;2026;51.002;13.668;2023-10-09T17:49:32;99255.34;;;14.10;88.32
4024;BME280;2026;51.002;13.668;2023-10-09T17:54:38;99261.63;;;14.16;87.78
4024;BME280;2026;51.002;13.668;2023-10-09T17:59:41;99264.88;;;13.93;89.24
4024;BME280;2026;51.002;13.668;2023-10-09T18:04:46;99265.09;;;14.16;88.19
4024;BME280;2026;51.002;13.668;2023-10-09T18:09:50;99263.94;;;14.31;87.26
4024;BME280;2026;51.002;13.668;2023-10-09T18:14:55;99269.84;;;14.33;87.05
4024;BME280;2026;51.002;13.668;2023-10-09T18:20:02;99261.44;;;14.36;86.95
4024;BME280;2026;51.002;13.668;2023-10-09T18:25:08;99263.44;;;14.40;86.77
4024;BME280;2026;51.002;13.668;2023-10-09T18:30:13;99261.38;;;14.43;86.54
4024;BME280;2026;51.002;13.668;2023-10-09T18:35:17;99262.03;;;14.38;87.01
4024;BME280;2026;51.002;13.668;2023-10-09T18:40:20;99261.88;;;14.33;87.24
4024;BME280;2026;51.002;13.668;2023-10-09T18:45:27;99265.16;;;14.35;87.31
4024;BME280;2026;51.002;13.668;2023-10-09T18:50:37;99264.47;;;14.39;87.32
4024;BME280;2026;51.002;13.668;2023-10-09T18:55:42;99267.63;;;14.30;87.77
4024;BME280;2026;51.002;13.668;2023-10-09T19:00:46;99267.97;;;14.40;87.40
4024;BME280;2026;51.002;13.668;2023-10-09T19:05:53;99278.44;;;14.35;87.85
4024;BME280;2026;51.002;13.668;2023-10-09T19:10:58;99273.84;;;14.42;87.48
4024;BME280;2026;51.002;13.668;2023-10-09T19:16:02;99269.13;;;14.44;87.39
4024;BME280;2026;51.002;13.668;2023-10-09T19:21:09;99281.47;;;14.57;87.83
4024;BME280;2026;51.002;13.668;2023-10-09T19:26:15;99275.91;;;14.65;87.57
4024;BME280;2026;51.002;13.668;2023-10-09T19:31:19;99276.13;;;14.64;87.11
4024;BME280;2026;51.002;13.668;2023-10-09T19:36:25;99276.94;;;14.64;87.32
4024;BME280;2026;51.002;13.668;2023-10-09T19:41:28;99279.31;;;14.47;87.57
4024;BME280;2026;51.002;13.668;2023-10-09T19:46:34;99269.50;;;14.48;87.24
4024;BME280;2026;51.002;13.668;2023-10-09T19:51:41;99274.16;;;14.52;87.22
4024;BME280;2026;51.002;13.668;2023-10-09T19:56:44;99278.44;;;14.53;87.27
4024;BME280;2026;51.002;13.668;2023-10-09T20:01:47;99282.69;;;14.61;86.63
4024;BME280;2026;51.002;13.668;2023-10-09T20:06:52;99289.78;;;14.67;86.45
4024;BME280;2026;51.002;13.668;2023-10-09T20:11:55;99294.16;;;14.62;86.15
4024;BME280;2026;51.002;13.668;2023-10-09T20:16:58;99296.22;;;14.53;87.12
4024;BME280;2026;51.002;13.668;2023-10-09T20:22:02;99301.28;;;14.61;86.85
4024;BME280;2026;51.002;13.668;2023-10-09T20:27:07;99308.41;;;14.67;86.55
4024;BME280;2026;51.002;13.668;2023-10-09T20:32:10;99303.94;;;14.61;87.14
4024;BME280;2026;51.002;13.668;2023-10-09T20:37:17;99313.88;;;14.47;87.96
4024;BME280;2026;51.002;13.668;2023-10-09T20:42:20;99321.44;;;14.50;87.97
4024;BME280;2026;51.002;13.668;2023-10-09T20:47:23;99316.09;;;14.50;87.73
4024;BME280;2026;51.002;13.668;2023-10-09T20:52:29;99329.13;;;14.58;87.41
4024;BME280;2026;51.002;13.668;2023-10-09T20:57:33;99339.75;;;14.58;87.19
4024;BME280;2026;51.002;13.668;2023-10-09T21:02:36;99340.97;;;14.63;87.34
4024;BME280;2026;51.002;13.668;2023-10-09T21:07:40;99349.72;;;14.70;86.99
4024;BME280;2026;51.002;13.668;2023-10-09T21:12:45;99340.41;;;14.54;87.50
4024;BME280;2026;51.002;13.668;2023-10-09T21:17:50;99346.06;;;14.64;87.11
4024;BME280;2026;51.002;13.668;2023-10-09T21:22:56;99355.19;;;14.75;86.86
4024;BME280;2026;51.002;13.668;2023-10-09T21:28:00;99360.41;;;14.63;87.30
4024;BME280;2026;51.002;13.668;2023-10-09T21:33:03;99359.22;;;14.77;86.71
4024;BME280;2026;51.002;13.668;2023-10-09T21:38:08;99358.84;;;14.74;86.49
4024;BME280;2026;51.002;13.668;2023-10-09T21:43:13;99359.19;;;14.59;87.01
4024;BME280;2026;51.002;13.668;2023-10-09T21:48:18;99361.50;;;14.74;86.53
4024;BME280;2026;51.002;13.668;2023-10-09T21:53:22;99363.44;;;14.67;87.17
4024;BME280;2026;51.002;13.668;2023-10-09T21:58:25;99370.97;;;14.70;86.52
4024;BME280;2026;51.002;13.668;2023-10-09T22:03:28;99369.50;;;14.74;86.29
4024;BME280;2026;51.002;13.668;2023-10-09T22:08:33;99367.72;;;14.68;86.43
4024;BME280;2026;51.002;13.668;2023-10-09T22:13:36;99365.66;;;14.70;86.47
4024;BME280;2026;51.002;13.668;2023-10-09T22:18:40;99358.06;;;14.73;85.94
4024;BME280;2026;51.002;13.668;2023-10-09T22:23:45;99375.25;;;14.71;86.27
4024;BME280;2026;51.002;13.668;2023-10-09T22:28:54;99365.38;;;14.78;85.66
4024;BME280;2026;51.002;13.668;2023-10-09T22:33:58;99371.50;;;14.79;85.36
4024;BME280;2026;51.002;13.668;2023-10-09T22:39:13;99366.19;;;14.79;85.89
4024;BME280;2026;51.002;13.668;2023-10-09T22:44:26;99372.00;;;14.69;86.28
4024;BME280;2026;51.002;13.668;2023-10-09T22:49:34;99380.72;;;14.51;87.22
4024;BME280;2026;51.002;13.668;2023-10-09T22:54:39;99376.72;;;14.67;86.44
4024;BME280;2026;51.002;13.668;2023-10-09T22:59:44;99374.75;;;14.81;85.51
4024;BME280;2026;51.002;13.668;2023-10-09T23:04:52;99368.03;;;14.78;85.75
4024;BME280;2026;51.002;13.668;2023-10-09T23:09:59;99369.88;;;14.77;85.71
4024;BME280;2026;51.002;13.668;2023-10-09T23:15:16;99382.63;;;14.69;85.72
4024;BME280;2026;51.002;13.668;2023-10-09T23:20:35;99381.91;;;14.62;86.01
4024;BME280;2026;51.002;13.668;2023-10-09T23:25:52;99386.53;;;14.66;85.75
4024;BME280;2026;51.002;13.668;2023-10-09T23:30:57;99395.38;;;14.35;87.01
4024;BME280;2026;51.002;13.668;2023-10-09T23:36:00;99400.72;;;14.60;86.26
4024;BME280;2026;51.002;13.668;2023-10-09T23:41:08;99402.91;;;14.70;85.66
4024;BME280;2026;51.002;13.668;2023-10-09T23:46:12;99402.50;;;14.66;85.38
4024;BME280;2026;51.002;13.668;2023-10-09T23:51:19;99401.13;;;14.57;85.82
4024;BME280;2026;51.002;13.668;2023-10-09T23:56:23;99408.88;;;14.58;85.93
